LICT/TPS METAR and TAF weather

Enter ICAO airport designator
Station Type Date Time Source
LICT METAR 2022/08/16 17:55 UTC NOAA

LICT 161755Z 17005KT 9999 FEW010 31/24 Q1011


Station Type Date Time Source
LICT Decoded METAR 2022/08/16 17:55 UTC NOAA

Trapani / Birgi, Italy (LICT) 37-55N 012-30E 14M
Aug 16, 2022 - 01:55 PM EDT / 2022.08.16 1755 UTC
Wind: from the S (170 degrees) at 6 MPH (5 KT):0
Visibility: greater than 7 mile(s):0
Sky conditions: mostly clear
Temperature: 87 F (31 C)
Heat index: 95.7 F (35.4 C):1
Dew Point: 75 F (24 C)
Relative Humidity: 66%
Pressure (altimeter): 29.85 in. Hg (1011 hPa)
ob: LICT 161755Z 17005KT 9999 FEW010 31/24 Q1011
cycle: 18

Station Type Date Time Source
LICT TAF 2021/10/13 09:24 UTC NOAA

TAF TAF LICT 130800Z 1309/1321 26012KT 9999 SCT025 SCT040
TEMPO 1309/1313 SHRA FEW018CB BKN020
TEMPO 1313/1321 5000 TSRA BKN012 FEW018CB

Example: see airport list